createdAt,value
2023-07-22T00:00:42.981Z,54.79
2023-07-22T00:03:10.041Z,55.06
2023-07-22T00:05:37.171Z,55.31
2023-07-22T00:08:04.355Z,55.39
2023-07-22T00:10:31.148Z,55.78
2023-07-22T00:12:58.032Z,55.64
2023-07-22T00:15:24.847Z,55.76
2023-07-22T00:17:52.472Z,55.54
2023-07-22T00:20:19.817Z,55.35
2023-07-22T00:22:46.744Z,55.15
2023-07-22T00:25:13.730Z,54.93
2023-07-22T00:27:41.686Z,55.13
2023-07-22T00:30:09.487Z,55.30
2023-07-22T00:32:36.761Z,55.36
2023-07-22T00:35:05.098Z,55.70
2023-07-22T00:37:32.436Z,55.63
2023-07-22T00:39:59.411Z,55.57
2023-07-22T00:42:26.367Z,55.24
2023-07-22T00:44:53.260Z,55.33
2023-07-22T00:47:22.015Z,55.47
2023-07-22T00:49:50.810Z,55.24
2023-07-22T00:52:17.802Z,55.57
2023-07-22T00:54:45.285Z,55.61
2023-07-22T00:57:12.455Z,55.60
2023-07-22T00:59:40.857Z,55.58
2023-07-22T01:02:08.243Z,55.03
2023-07-22T01:04:36.252Z,55.55
2023-07-22T01:07:05.033Z,55.61
2023-07-22T01:09:39.417Z,55.68
2023-07-22T01:12:07.408Z,55.72
2023-07-22T01:14:38.035Z,55.98
2023-07-22T01:17:07.170Z,56.55
2023-07-22T01:19:34.977Z,56.04
2023-07-22T01:22:04.541Z,56.25
2023-07-22T01:24:33.091Z,56.06
2023-07-22T01:27:00.391Z,55.95
2023-07-22T01:29:27.653Z,55.87
2023-07-22T01:31:56.126Z,56.10
2023-07-22T01:34:23.692Z,55.89
2023-07-22T01:36:50.744Z,55.98
2023-07-22T01:39:18.916Z,56.21
2023-07-22T01:41:46.085Z,56.29
2023-07-22T01:44:13.012Z,55.98
2023-07-22T01:46:40.246Z,56.05
2023-07-22T01:49:08.862Z,55.97
2023-07-22T01:51:35.728Z,55.65
2023-07-22T01:54:02.702Z,55.83
2023-07-22T01:56:29.703Z,55.66
2023-07-22T01:58:56.797Z,55.50
2023-07-22T02:01:23.744Z,55.53
2023-07-22T02:03:50.707Z,55.27
2023-07-22T02:06:17.687Z,55.35
2023-07-22T02:08:44.590Z,55.25
2023-07-22T02:11:12.063Z,55.17
2023-07-22T02:13:39.216Z,55.02
2023-07-22T02:16:06.365Z,54.67
2023-07-22T02:18:33.309Z,54.61
2023-07-22T02:21:00.209Z,54.70
2023-07-22T02:23:27.286Z,54.94
2023-07-22T02:25:55.372Z,54.57
2023-07-22T02:28:23.206Z,54.48
2023-07-22T02:30:51.335Z,54.89
2023-07-22T02:33:18.120Z,54.80
2023-07-22T02:35:45.334Z,55.09
2023-07-22T02:38:12.425Z,54.33
2023-07-22T02:40:39.483Z,54.16
2023-07-22T02:43:06.376Z,55.45
2023-07-22T02:45:33.348Z,55.33
2023-07-22T02:48:00.409Z,55.13
2023-07-22T02:50:27.488Z,54.72
2023-07-22T02:52:54.432Z,54.90
2023-07-22T02:55:21.819Z,54.40
2023-07-22T02:57:49.295Z,54.57
2023-07-22T03:00:18.425Z,54.26
2023-07-22T03:02:45.302Z,54.17
2023-07-22T03:05:12.331Z,54.40
2023-07-22T03:07:39.944Z,54.48
2023-07-22T03:10:07.580Z,54.32
2023-07-22T03:12:35.309Z,54.06
2023-07-22T03:15:02.366Z,54.10
2023-07-22T03:17:29.319Z,54.37
2023-07-22T03:19:56.250Z,54.53
2023-07-22T03:22:23.106Z,54.44
2023-07-22T03:24:49.987Z,54.30
2023-07-22T03:27:16.954Z,54.34
2023-07-22T03:29:43.864Z,54.20
2023-07-22T03:32:10.765Z,53.99
2023-07-22T03:34:37.572Z,54.08
2023-07-22T03:37:04.604Z,53.95
2023-07-22T03:39:31.722Z,53.59
2023-07-22T03:41:58.659Z,53.26
2023-07-22T03:44:25.614Z,53.01
2023-07-22T03:46:52.511Z,52.52
2023-07-22T03:49:19.340Z,52.81
2023-07-22T03:51:46.258Z,52.55
2023-07-22T03:54:13.093Z,52.52
2023-07-22T03:56:42.467Z,52.48
2023-07-22T03:59:09.311Z,51.78
2023-07-22T04:01:36.171Z,51.53
2023-07-22T04:04:03.072Z,51.73
2023-07-22T04:06:30.160Z,51.55
2023-07-22T04:08:57.270Z,51.29
2023-07-22T04:11:24.152Z,51.09
2023-07-22T04:13:51.014Z,50.99
2023-07-22T04:16:17.890Z,50.68
2023-07-22T04:18:44.702Z,50.81
2023-07-22T04:21:14.210Z,50.67
2023-07-22T04:23:41.208Z,50.15
2023-07-22T04:26:08.085Z,50.54
2023-07-22T04:28:35.844Z,50.29
2023-07-22T04:31:03.031Z,50.11
2023-07-22T04:33:29.924Z,50.38
2023-07-22T04:36:00.075Z,49.39
2023-07-22T04:38:29.458Z,49.76
2023-07-22T04:40:56.475Z,49.20
2023-07-22T04:43:23.506Z,49.35
2023-07-22T04:45:50.569Z,49.29
2023-07-22T04:48:19.091Z,48.64
2023-07-22T04:50:46.332Z,48.99
2023-07-22T04:53:13.902Z,49.09
2023-07-22T04:55:41.753Z,48.65
2023-07-22T04:58:11.610Z,48.34
2023-07-22T05:00:38.882Z,48.46
2023-07-22T05:03:06.624Z,48.22
2023-07-22T05:05:34.807Z,48.23
2023-07-22T05:08:01.734Z,48.81
2023-07-22T05:10:28.685Z,47.81
2023-07-22T05:12:56.410Z,47.53
2023-07-22T05:15:23.311Z,46.99
2023-07-22T05:17:50.374Z,47.04
2023-07-22T05:20:17.473Z,46.16
2023-07-22T05:22:47.334Z,45.79
2023-07-22T05:25:14.262Z,44.87
2023-07-22T05:27:43.627Z,44.94
2023-07-22T05:30:19.775Z,44.93
2023-07-22T05:32:54.363Z,45.15
2023-07-22T05:35:21.281Z,44.69
2023-07-22T05:37:48.271Z,44.00
2023-07-22T05:40:15.372Z,44.48
2023-07-22T05:42:42.278Z,43.95
2023-07-22T05:45:09.799Z,43.74
2023-07-22T05:47:36.885Z,43.35
2023-07-22T05:50:03.984Z,43.40
2023-07-22T05:52:30.818Z,43.14
2023-07-22T05:54:58.073Z,43.29
2023-07-22T05:57:24.901Z,42.12
2023-07-22T06:00:06.277Z,40.57
2023-07-22T06:02:35.230Z,40.67
2023-07-22T06:05:02.256Z,40.35
2023-07-22T06:07:29.109Z,40.88
2023-07-22T06:09:56.065Z,40.70
2023-07-22T06:12:23.410Z,39.49
2023-07-22T06:14:52.697Z,39.40
2023-07-22T06:17:20.439Z,38.19
2023-07-22T06:19:47.327Z,38.58
2023-07-22T06:22:14.345Z,38.14
2023-07-22T06:24:41.890Z,38.17
2023-07-22T06:27:08.973Z,37.64
2023-07-22T06:29:36.039Z,38.13
2023-07-22T06:32:05.029Z,37.89
2023-07-22T06:34:32.177Z,38.09
2023-07-22T06:37:02.054Z,38.02
2023-07-22T06:39:31.756Z,37.95
2023-07-22T06:41:58.691Z,36.83
2023-07-22T06:44:25.780Z,36.51
2023-07-22T06:46:53.243Z,36.98
2023-07-22T06:49:20.083Z,37.54
2023-07-22T06:51:50.505Z,36.67
2023-07-22T06:54:17.481Z,35.98
2023-07-22T06:56:44.750Z,35.56
2023-07-22T06:59:11.797Z,36.59
2023-07-22T07:01:40.504Z,36.84
2023-07-22T07:04:07.638Z,36.26
2023-07-22T07:06:34.551Z,35.68
2023-07-22T07:09:01.584Z,36.22
2023-07-22T07:11:30.061Z,35.05
2023-07-22T07:13:57.083Z,36.04
2023-07-22T07:16:29.118Z,36.21
2023-07-22T07:18:56.847Z,35.49
2023-07-22T07:21:24.430Z,35.36
2023-07-22T07:23:53.039Z,35.15
2023-07-22T07:26:23.513Z,35.01
2023-07-22T07:28:51.310Z,33.76
2023-07-22T07:31:18.597Z,34.46
2023-07-22T07:33:45.571Z,33.74
2023-07-22T07:36:12.369Z,34.50
2023-07-22T07:38:39.171Z,33.41
2023-07-22T07:41:06.686Z,33.77
2023-07-22T07:43:33.348Z,34.31
2023-07-22T07:46:18.575Z,34.07
2023-07-22T07:48:46.325Z,33.01
2023-07-22T07:51:13.588Z,33.18
2023-07-22T07:53:40.392Z,31.79
2023-07-22T07:56:07.188Z,31.75
2023-07-22T07:58:33.870Z,31.73
2023-07-22T08:01:00.783Z,31.27
2023-07-22T08:03:27.782Z,31.67
2023-07-22T08:05:54.613Z,31.34
2023-07-22T08:08:22.282Z,31.19
2023-07-22T08:10:49.231Z,29.05
2023-07-22T08:13:16.091Z,30.08
2023-07-22T08:15:43.084Z,30.26
2023-07-22T08:18:09.984Z,30.09
2023-07-22T08:20:37.005Z,29.91
2023-07-22T08:23:03.948Z,30.29
2023-07-22T08:25:30.965Z,29.79
2023-07-22T08:27:57.824Z,29.53
2023-07-22T08:30:24.773Z,29.52
2023-07-22T08:32:51.807Z,28.56
2023-07-22T08:35:18.679Z,28.77
2023-07-22T08:37:45.647Z,28.73
2023-07-22T08:40:12.763Z,29.41
2023-07-22T08:42:39.779Z,29.00
2023-07-22T08:45:10.548Z,28.60
2023-07-22T08:47:43.705Z,26.79
2023-07-22T08:50:11.885Z,26.86
2023-07-22T08:52:39.495Z,27.02
2023-07-22T08:55:06.962Z,28.33
2023-07-22T08:57:35.026Z,28.30
2023-07-22T09:00:02.843Z,27.62
2023-07-22T09:02:30.408Z,27.49
2023-07-22T09:04:58.115Z,25.64
2023-07-22T09:07:25.241Z,26.49
2023-07-22T09:09:52.561Z,24.77
2023-07-22T09:12:20.627Z,26.78
2023-07-22T09:14:48.159Z,28.25
2023-07-22T09:17:15.116Z,27.67
2023-07-22T09:19:45.235Z,27.83
2023-07-22T09:22:12.160Z,28.36
2023-07-22T09:24:39.135Z,27.69
2023-07-22T09:27:06.541Z,27.36
2023-07-22T09:29:40.699Z,25.69
2023-07-22T09:32:08.129Z,25.64
2023-07-22T09:34:35.296Z,25.58
2023-07-22T09:37:02.384Z,26.24
2023-07-22T09:39:29.675Z,25.93
2023-07-22T09:41:57.616Z,25.31
2023-07-22T09:44:24.815Z,25.53
2023-07-22T09:46:52.462Z,25.17
2023-07-22T09:49:20.074Z,25.41
2023-07-22T09:52:00.884Z,24.24
2023-07-22T09:54:29.533Z,24.37
2023-07-22T09:56:56.558Z,22.97
2023-07-22T09:59:24.537Z,25.12
2023-07-22T10:01:52.952Z,26.57
2023-07-22T10:04:26.664Z,26.21
2023-07-22T10:06:53.873Z,24.80
2023-07-22T10:09:23.240Z,23.68
2023-07-22T10:11:50.626Z,24.70
2023-07-22T10:14:19.951Z,22.92
2023-07-22T10:16:47.066Z,23.14
2023-07-22T10:19:14.834Z,22.39
2023-07-22T10:21:42.067Z,21.57
2023-07-22T10:24:10.560Z,22.35
2023-07-22T10:29:09.030Z,21.30
2023-07-22T10:31:36.204Z,22.86
2023-07-22T10:34:04.586Z,23.73
2023-07-22T10:36:32.194Z,24.10
2023-07-22T10:39:03.883Z,23.68
2023-07-22T10:41:31.784Z,22.59
2023-07-22T10:44:00.384Z,23.46
2023-07-22T10:46:58.084Z,23.30
2023-07-22T10:49:25.650Z,23.20
2023-07-22T10:51:53.585Z,23.40
2023-07-22T10:54:36.579Z,22.60
2023-07-22T10:57:15.805Z,22.71
2023-07-22T10:59:51.020Z,23.23
2023-07-22T11:02:29.924Z,22.11
2023-07-22T11:05:01.349Z,22.77
2023-07-22T11:07:44.564Z,24.00
2023-07-22T11:10:19.962Z,24.56
2023-07-22T11:12:47.180Z,23.90
2023-07-22T11:15:17.567Z,23.01
2023-07-22T11:17:45.127Z,23.16
2023-07-22T11:20:12.236Z,23.70
2023-07-22T11:22:42.596Z,22.34
2023-07-22T11:25:10.132Z,23.26
2023-07-22T11:27:39.682Z,23.10
2023-07-22T11:30:07.274Z,22.78
2023-07-22T11:32:34.599Z,22.78
2023-07-22T11:35:01.429Z,23.11
2023-07-22T11:37:31.110Z,23.59
2023-07-22T11:40:02.164Z,24.42
2023-07-22T11:42:29.534Z,23.29
2023-07-22T11:44:57.592Z,22.85
2023-07-22T11:47:31.507Z,22.87
2023-07-22T11:50:03.312Z,23.29
2023-07-22T11:52:30.232Z,23.26
2023-07-22T11:55:03.145Z,22.56
2023-07-22T11:57:29.954Z,21.79
2023-07-22T11:59:58.220Z,19.92
2023-07-22T12:02:28.211Z,20.87
2023-07-22T12:05:03.849Z,21.29
2023-07-22T12:07:33.174Z,22.03
2023-07-22T12:10:04.053Z,23.11
2023-07-22T12:12:37.315Z,22.21
2023-07-22T12:15:10.259Z,21.36
2023-07-22T12:17:50.217Z,21.45
2023-07-22T12:20:18.614Z,20.80
2023-07-22T12:22:45.965Z,20.64
2023-07-22T12:25:12.928Z,20.85
2023-07-22T12:27:40.034Z,20.75
2023-07-22T12:30:07.629Z,20.56
2023-07-22T12:32:35.150Z,19.53
2023-07-22T12:35:02.435Z,19.53
2023-07-22T12:37:29.569Z,19.86
2023-07-22T12:39:58.032Z,20.55
2023-07-22T12:42:25.271Z,21.28
2023-07-22T12:44:52.934Z,21.15
2023-07-22T12:47:20.648Z,21.69
2023-07-22T12:49:48.178Z,22.22
2023-07-22T12:52:15.327Z,22.56
2023-07-22T12:54:43.145Z,22.75
2023-07-22T12:57:10.474Z,21.93
2023-07-22T12:59:37.652Z,21.60
2023-07-22T13:02:06.140Z,21.47
2023-07-22T13:04:33.311Z,20.91
2023-07-22T13:07:00.282Z,21.26
2023-07-22T13:09:27.708Z,21.12
2023-07-22T13:11:54.729Z,20.43
2023-07-22T13:14:21.680Z,21.16
2023-07-22T13:16:48.729Z,21.16
2023-07-22T13:19:15.919Z,22.26
2023-07-22T13:21:42.889Z,22.24
2023-07-22T13:24:09.959Z,22.51
2023-07-22T13:26:40.176Z,20.48
2023-07-22T13:29:07.866Z,20.64
2023-07-22T13:31:34.947Z,20.24
2023-07-22T13:34:02.002Z,19.67
2023-07-22T13:36:28.941Z,20.67
2023-07-22T13:38:55.848Z,20.51
2023-07-22T13:41:22.846Z,20.86
2023-07-22T13:43:49.740Z,21.04
2023-07-22T13:46:16.668Z,21.57
2023-07-22T13:48:43.484Z,21.47
2023-07-22T13:51:10.493Z,21.84
2023-07-22T13:53:37.717Z,21.53
2023-07-22T13:56:04.733Z,21.42
2023-07-22T13:58:31.718Z,20.44
2023-07-22T14:01:00.555Z,20.86
2023-07-22T14:03:29.133Z,20.72
2023-07-22T14:05:56.077Z,20.26
2023-07-22T14:08:23.203Z,20.28
2023-07-22T14:10:50.170Z,20.49
2023-07-22T14:13:17.038Z,20.86
2023-07-22T14:15:44.069Z,20.55
2023-07-22T14:18:11.190Z,21.03
2023-07-22T14:20:38.239Z,20.54
2023-07-22T14:23:05.208Z,19.96
2023-07-22T14:25:32.056Z,20.00
2023-07-22T14:27:58.968Z,19.88
2023-07-22T14:30:26.222Z,19.12
2023-07-22T14:32:53.235Z,19.80
2023-07-22T14:35:20.298Z,19.15
2023-07-22T14:37:47.378Z,19.26
2023-07-22T14:40:14.748Z,19.73
2023-07-22T14:42:41.979Z,19.35
2023-07-22T14:45:09.518Z,19.46
2023-07-22T14:47:36.676Z,18.98
2023-07-22T14:50:04.096Z,18.75
2023-07-22T14:52:31.069Z,19.22
2023-07-22T14:54:58.175Z,19.10
2023-07-22T14:57:25.066Z,19.18
2023-07-22T14:59:54.017Z,18.49
2023-07-22T15:02:20.990Z,19.21
2023-07-22T15:04:49.945Z,19.50
2023-07-22T15:07:17.003Z,20.41
2023-07-22T15:09:43.957Z,21.45
2023-07-22T15:12:10.841Z,21.85
2023-07-22T15:14:38.336Z,22.84
2023-07-22T15:17:05.445Z,22.82
2023-07-22T15:19:32.314Z,22.81
2023-07-22T15:21:59.323Z,22.75
2023-07-22T15:24:26.299Z,23.18
2023-07-22T15:26:53.140Z,23.45
2023-07-22T15:29:21.733Z,23.67
2023-07-22T15:31:49.792Z,24.76
2023-07-22T15:34:16.953Z,26.00
2023-07-22T15:36:43.944Z,26.81
2023-07-22T15:39:10.829Z,27.35
2023-07-22T15:41:37.826Z,26.74
2023-07-22T15:44:06.657Z,27.23
2023-07-22T15:46:34.796Z,27.84
2023-07-22T15:49:02.938Z,28.41
2023-07-22T15:51:30.098Z,28.45
2023-07-22T15:53:57.267Z,28.29
2023-07-22T15:56:24.330Z,28.31
2023-07-22T15:58:51.263Z,28.25
2023-07-22T16:01:18.158Z,28.07
2023-07-22T16:03:45.115Z,28.25
2023-07-22T16:06:22.826Z,28.28
2023-07-22T16:08:54.246Z,27.88
2023-07-22T16:11:21.338Z,27.43
2023-07-22T16:13:50.202Z,27.82
2023-07-22T16:16:17.096Z,27.82
2023-07-22T16:18:44.074Z,27.55
2023-07-22T16:21:10.983Z,28.14
2023-07-22T16:23:37.975Z,27.69
2023-07-22T16:26:04.990Z,28.04
2023-07-22T16:28:31.856Z,28.36
2023-07-22T16:30:58.866Z,28.71
2023-07-22T16:33:25.748Z,29.34
2023-07-22T16:35:52.602Z,29.54
2023-07-22T16:38:19.436Z,29.89
2023-07-22T16:40:46.472Z,30.28
2023-07-22T16:43:13.356Z,30.35
2023-07-22T16:45:40.403Z,30.66
2023-07-22T16:48:07.794Z,31.34
2023-07-22T16:50:34.632Z,31.61
2023-07-22T16:53:01.452Z,31.48
2023-07-22T16:55:28.320Z,31.98
2023-07-22T16:57:55.217Z,32.03
2023-07-22T17:00:22.040Z,32.15
2023-07-22T17:02:49.387Z,32.04
2023-07-22T17:05:16.398Z,31.77
2023-07-22T17:07:43.350Z,32.00
2023-07-22T17:10:10.692Z,32.00
2023-07-22T17:12:37.634Z,32.58
2023-07-22T17:15:09.168Z,32.62
2023-07-22T17:17:36.335Z,32.93
2023-07-22T17:20:03.340Z,33.06
2023-07-22T17:22:30.208Z,33.14
2023-07-22T17:24:57.079Z,33.20
2023-07-22T17:27:23.908Z,33.23
2023-07-22T17:29:50.784Z,33.38
2023-07-22T17:32:17.903Z,33.89
2023-07-22T17:34:44.868Z,33.68
2023-07-22T17:37:11.743Z,33.81
2023-07-22T17:39:38.690Z,33.76
2023-07-22T17:42:05.997Z,33.32
2023-07-22T17:44:32.832Z,33.66
2023-07-22T17:46:59.739Z,32.94
2023-07-22T17:49:26.811Z,33.18
2023-07-22T17:51:53.685Z,33.05
2023-07-22T17:54:20.632Z,32.98
2023-07-22T17:56:47.519Z,32.77
2023-07-22T17:59:14.438Z,33.29
2023-07-22T18:01:41.331Z,33.35
2023-07-22T18:04:08.496Z,33.55
2023-07-22T18:06:35.360Z,33.10
2023-07-22T18:09:02.252Z,32.04
2023-07-22T18:11:29.269Z,32.05
2023-07-22T18:13:56.282Z,31.59
2023-07-22T18:16:23.280Z,31.54
2023-07-22T18:18:50.370Z,31.30
2023-07-22T18:21:17.229Z,31.38
2023-07-22T18:23:44.152Z,31.28
2023-07-22T18:26:10.925Z,31.71
2023-07-22T18:28:38.168Z,32.12
2023-07-22T18:31:05.075Z,32.58
2023-07-22T18:33:32.003Z,32.81
2023-07-22T18:35:58.899Z,32.56
2023-07-22T18:38:25.930Z,32.93
2023-07-22T18:40:53.598Z,32.53
2023-07-22T18:43:23.144Z,33.56
2023-07-22T18:45:50.857Z,33.85
2023-07-22T18:48:17.850Z,34.62
2023-07-22T18:50:44.815Z,34.23
2023-07-22T18:53:11.835Z,33.56
2023-07-22T18:55:38.696Z,33.43
2023-07-22T18:58:05.606Z,33.15
2023-07-22T19:00:32.529Z,33.09
2023-07-22T19:02:59.487Z,33.04
2023-07-22T19:05:26.356Z,33.30
2023-07-22T19:07:53.194Z,32.47
2023-07-22T19:10:19.996Z,33.07
2023-07-22T19:12:46.899Z,33.65
2023-07-22T19:15:13.882Z,34.21
2023-07-22T19:17:40.737Z,34.12
2023-07-22T19:20:07.836Z,33.78
2023-07-22T19:22:34.817Z,33.95
2023-07-22T19:25:01.670Z,33.71
2023-07-22T19:27:28.758Z,34.29
2023-07-22T19:29:55.754Z,33.76
2023-07-22T19:32:22.705Z,33.15
2023-07-22T19:34:49.542Z,33.37
2023-07-22T19:37:16.596Z,33.49
2023-07-22T19:39:43.461Z,33.25
2023-07-22T19:42:10.322Z,32.30
2023-07-22T19:44:37.208Z,33.12
2023-07-22T19:47:04.499Z,33.60
2023-07-22T19:49:31.384Z,34.13
2023-07-22T19:51:58.438Z,34.08
2023-07-22T19:54:25.288Z,33.74
2023-07-22T19:56:52.156Z,33.63
2023-07-22T19:59:19.135Z,33.59
2023-07-22T20:01:46.010Z,33.96
2023-07-22T20:04:12.851Z,32.93
2023-07-22T20:06:41.485Z,33.58
2023-07-22T20:09:08.486Z,32.86
2023-07-22T20:11:35.382Z,31.32
2023-07-22T20:14:03.110Z,28.86
2023-07-22T20:16:30.060Z,27.38
2023-07-22T20:18:57.020Z,26.65
2023-07-22T20:21:24.509Z,26.59
2023-07-22T20:23:51.453Z,27.07
2023-07-22T20:26:18.827Z,27.53
2023-07-22T20:28:45.806Z,27.91
2023-07-22T20:31:14.089Z,28.07
2023-07-22T20:33:41.340Z,27.81
2023-07-22T20:36:10.920Z,27.92
2023-07-22T20:38:38.368Z,28.44
2023-07-22T20:41:06.378Z,28.28
2023-07-22T20:43:34.151Z,28.07
2023-07-22T20:46:04.987Z,28.25
2023-07-22T20:48:33.181Z,28.81
2023-07-22T20:51:00.458Z,29.17
2023-07-22T20:53:27.605Z,29.29
2023-07-22T20:55:54.618Z,29.86
2023-07-22T20:58:21.536Z,29.58
2023-07-22T21:00:48.583Z,29.28
2023-07-22T21:03:15.748Z,29.10
2023-07-22T21:05:42.716Z,28.98
2023-07-22T21:08:09.627Z,28.55
2023-07-22T21:10:36.785Z,28.58
2023-07-22T21:13:04.019Z,28.09
2023-07-22T21:15:30.890Z,28.48
2023-07-22T21:17:57.758Z,28.76
2023-07-22T21:20:24.697Z,28.42
2023-07-22T21:22:51.550Z,29.08
2023-07-22T21:25:18.443Z,28.84
2023-07-22T21:27:48.400Z,28.53
2023-07-22T21:30:16.114Z,28.71
2023-07-22T21:32:43.042Z,28.41
2023-07-22T21:35:12.955Z,28.71
2023-07-22T21:37:42.155Z,28.51
2023-07-22T21:40:09.761Z,28.43
2023-07-22T21:42:36.694Z,28.84
2023-07-22T21:45:03.848Z,29.17
2023-07-22T21:47:30.707Z,29.08
2023-07-22T21:49:57.663Z,29.32
2023-07-22T21:52:24.603Z,29.18
2023-07-22T21:54:51.468Z,28.98
2023-07-22T21:57:18.472Z,28.93
2023-07-22T21:59:45.277Z,29.37
2023-07-22T22:02:12.138Z,28.17
2023-07-22T22:04:39.249Z,28.33
2023-07-22T22:07:06.510Z,28.70
2023-07-22T22:09:33.407Z,29.19
2023-07-22T22:12:00.454Z,29.49
2023-07-22T22:14:27.318Z,29.80
2023-07-22T22:16:54.581Z,30.17
2023-07-22T22:19:22.010Z,30.20
2023-07-22T22:21:48.868Z,30.61
2023-07-22T22:24:15.672Z,30.68
2023-07-22T22:26:42.608Z,31.35
2023-07-22T22:29:09.604Z,31.59
2023-07-22T22:31:36.709Z,31.30
2023-07-22T22:34:03.694Z,31.01
2023-07-22T22:36:30.506Z,30.94
2023-07-22T22:38:57.559Z,31.17
2023-07-22T22:41:24.635Z,31.27
2023-07-22T22:43:51.544Z,31.06
2023-07-22T22:46:18.478Z,30.93
2023-07-22T22:48:45.352Z,30.82
2023-07-22T22:51:12.239Z,30.08
2023-07-22T22:53:39.075Z,29.91
2023-07-22T22:56:06.444Z,29.67
2023-07-22T22:58:33.908Z,30.11
2023-07-22T23:01:00.885Z,30.20
2023-07-22T23:03:28.021Z,30.38
2023-07-22T23:06:01.156Z,30.67
2023-07-22T23:08:27.970Z,30.74
2023-07-22T23:10:54.880Z,30.63
2023-07-22T23:13:21.823Z,30.93
2023-07-22T23:15:48.805Z,30.47
2023-07-22T23:18:18.643Z,30.47
2023-07-22T23:20:45.945Z,30.44
2023-07-22T23:23:12.989Z,30.23
2023-07-22T23:25:39.788Z,30.20
2023-07-22T23:28:06.640Z,30.51
2023-07-22T23:30:33.473Z,30.41
2023-07-22T23:33:00.438Z,33.23
2023-07-22T23:35:27.302Z,33.21
2023-07-22T23:37:54.375Z,33.14
2023-07-22T23:40:21.394Z,32.60
2023-07-22T23:42:48.285Z,32.60
2023-07-22T23:45:15.521Z,32.05
2023-07-22T23:47:42.342Z,30.62
2023-07-22T23:50:09.717Z,29.50
2023-07-22T23:52:37.662Z,30.55
2023-07-22T23:55:04.729Z,31.97
2023-07-22T23:57:31.621Z,32.76
2023-07-22T23:59:58.571Z,32.27
